Flight Track Log - Related Links

Times and Time Zones

All times are in EDT time to prevent confusion due to time zone crossing. See the FLG4133 flight status page for this flight to view local times or setup timezone preferences in your user account.

Time Position Orientation Groundspeed Altitude Reporting Facility
EDT Latitude Longitude Course Direction KTS MPH feet Rate Location/Type
Thu 10:08:01 AM 35.0333 -89.9833 188° South 143 165 900  Level Anchorage Center
Thu 10:08:37 AM 34.9983 -89.9892 199° South 146 168 1,900 1,895 Climbing FAA TRACON SMA TRACON (SMA)
Thu 10:09:17 AM 34.9628 -90.0039 240° Southwest 195 224 3,300 1,875 Climbing FAA TRACON SMA TRACON (SMA)
Thu 10:09:57 AM 34.9422 -90.0469 270° West 235 270 4,400 1,275 Climbing FAA TRACON SMA TRACON (SMA)
Thu 10:10:37 AM 34.9422 -90.1025 266° West 260 299 5,000 450 Climbing FAA TRACON SMA TRACON (SMA)
Thu 10:11:17 AM 34.9383 -90.1633 265° West 258 297 5,000 975 Level FAA TRACON SMA TRACON (SMA)
Thu 10:11:57 AM 34.9344 -90.2172 264° West 257 296 6,300 2,025 Climbing FAA TRACON SMA TRACON (SMA)
Thu 10:12:37 AM 34.9297 -90.2767 265° West 255 293 7,700 2,100 Climbing FAA TRACON SMA TRACON (SMA)
Thu 10:13:17 AM 34.9253 -90.3392 265° West 263 303 9,100 1,725 Climbing FAA TRACON SMA TRACON (SMA)
Thu 10:13:57 AM 34.9211 -90.3989 264° West 272 313 10,000 975 Climbing FAA TRACON SMA TRACON (SMA)
Thu 10:14:37 AM 34.9156 -90.4683 265° West 301 346 10,400 835 Climbing FAA TRACON SMA TRACON (SMA)
Thu 10:15:16 AM 34.9100 -90.5447 265° West 323 372 11,100 1,050 Climbing FAA TRACON SMA TRACON (SMA)
Thu 10:15:57 AM 34.9047 -90.6200 265° West 336 387 11,800 975 Climbing FAA TRACON SMA TRACON (SMA)
Thu 10:16:36 AM 34.8994 -90.7011 265° West 350 403 12,400 1,050 Climbing FAA TRACON SMA TRACON (SMA)
Thu 10:17:17 AM 34.8931 -90.7842 261° West 361 415 13,200 1,350 Climbing FAA TRACON SMA TRACON (SMA)
Thu 10:17:56 AM 34.8828 -90.8675 259° West 365 420 14,200 1,500 Climbing FAA TRACON SMA TRACON (SMA)
Thu 10:18:37 AM 34.8708 -90.9456 259° West 367 422 15,200 1,259 Climbing FAA TRACON SMA TRACON (SMA)
Thu 10:19:17 AM 34.8622 -91.0014 261° West 365 420 15,900 1,423 Climbing FAA TRACON SMA TRACON (SMA)
Thu 10:20:14 AM 34.8442 -91.1414 260° West 371 427 17,500 1,641 Climbing Memphis Center
Thu 10:21:14 AM 34.8267 -91.2603 257° West 366 421 19,100 1,450 Climbing Memphis Center
Thu 10:22:14 AM 34.8050 -91.3789 259° West 366 421 20,400 1,150 Climbing Memphis Center
Thu 10:23:14 AM 34.7853 -91.5000 259° West 366 421 21,400 1,050 Climbing Memphis Center
Thu 10:24:14 AM 34.7653 -91.6211 260° West 375 432 22,500 1,100 Climbing Memphis Center
Thu 10:25:14 AM 34.7450 -91.7572 259° West 375 432 23,600 1,050 Climbing Memphis Center
Thu 10:26:14 AM 34.7247 -91.8808 260° West 375 432 24,600 1,000 Climbing Memphis Center
Thu 10:27:14 AM 34.7067 -92.0017 259° West 369 425 25,600 1,000 Climbing Memphis Center
Thu 10:28:14 AM 34.6861 -92.1250 255° West 375 432 26,600 850 Climbing Memphis Center
Thu 10:29:14 AM 34.6594 -92.2458 252° West 375 432 27,300 550 Climbing Memphis Center
Thu 10:30:14 AM 34.6306 -92.3561 252° West 375 432 27,700 350 Climbing Memphis Center
Thu 10:31:14 AM 34.5969 -92.4842 252° West 386 444 28,000 150 Climbing Memphis Center
Thu 10:32:14 AM 34.5614 -92.6142 252° West 398 458 28,000  Level Memphis Center
Thu 10:33:14 AM 34.5256 -92.7469 253° West 408 470 28,000  Level Memphis Center
Thu 10:34:14 AM 34.4894 -92.8869 252° West 424 488 28,000  Level Memphis Center
Thu 10:35:14 AM 34.4511 -93.0269 253° West 429 494 28,000  Level Memphis Center
Thu 10:36:14 AM 34.4167 -93.1644 251° West 435 501 28,000  Level Memphis Center
Thu 10:37:14 AM 34.3758 -93.3064 253° West 441 507 28,000  Level Memphis Center
Thu 10:38:10 AM 34.3383 -93.4522 253° West 440 506 28,000  Level Fort Worth Center
Thu 10:39:10 AM 34.3011 -93.5972 252° West 445 512 28,000  Level Fort Worth Center
Thu 10:40:10 AM 34.2617 -93.7422 251° West 450 518 28,000  Level Fort Worth Center
Thu 10:41:10 AM 34.2219 -93.8847 251° West 450 518 28,000  Level Fort Worth Center
Thu 10:42:10 AM 34.1819 -94.0269 251° West 450 518 28,000  Level Fort Worth Center
Thu 10:43:10 AM 34.1419 -94.1689 251° West 450 518 28,000  Level Fort Worth Center
Thu 10:44:10 AM 34.1017 -94.3108 252° West 450 518 28,000  Level Fort Worth Center
Thu 10:45:10 AM 34.0653 -94.4425 251° West 450 518 28,000  Level Fort Worth Center
Thu 10:46:10 AM 34.0247 -94.5842 251° West 450 518 28,000  Level Fort Worth Center
Thu 10:47:10 AM 33.9839 -94.7258 250° West 450 518 28,000  Level Fort Worth Center
Thu 10:48:10 AM 33.9411 -94.8672 251° West 450 518 28,000  Level Fort Worth Center
Thu 10:49:10 AM 33.9000 -95.0086 251° West 450 518 28,000  Level Fort Worth Center
Thu 10:50:10 AM 33.8586 -95.1500 252° West 450 518 28,000 -100 Level Fort Worth Center
Thu 10:51:10 AM 33.8194 -95.2933 248° West 450 518 27,800 -1,100 Descending Fort Worth Center
Thu 10:52:10 AM 33.7717 -95.4344 253° West 450 518 25,800 -2,000 Descending Fort Worth Center
Thu 10:53:10 AM 33.7361 -95.5703 252° West 445 512 23,800 -2,000 Descending Fort Worth Center
Thu 10:54:10 AM 33.7025 -95.6981 252° West 424 488 21,800 -2,000 Descending Fort Worth Center
Thu 10:55:10 AM 33.6706 -95.8136 248° West 390 449 19,800 -2,250 Descending Fort Worth Center
Thu 10:56:10 AM 33.6306 -95.9342 249° West 364 419 17,300 -2,200 Descending Fort Worth Center
Thu 10:57:10 AM 33.6022 -96.0244 250° West 334 384 15,400 -1,950 Descending Fort Worth Center
Thu 10:58:10 AM 33.5681 -96.1394 256° West 336 387 13,400 -1,787 Descending Fort Worth Center
Thu 10:58:44 AM 33.5547 -96.2050 234° Southwest 355 409 12,600 -1,378 Descending FAA TRACON SMA TRACON (SMA)
Thu 10:59:24 AM 33.5178 -96.2656 225° Southwest 369 425 11,700 -1,200 Descending FAA TRACON SMA TRACON (SMA)
Thu 11:00:04 AM 33.4683 -96.3258 226° Southwest 364 419 11,000 -525 Descending FAA TRACON SMA TRACON (SMA)
Thu 11:00:44 AM 33.4272 -96.3761 223° Southwest 296 341 11,000  Level FAA TRACON SMA TRACON (SMA)
Thu 11:01:23 AM 33.3925 -96.4147 224° Southwest 275 316 11,000  Level FAA TRACON SMA TRACON (SMA)
Thu 11:02:04 AM 33.3536 -96.4600 224° Southwest 283 326 11,000 -296 Level FAA TRACON SMA TRACON (SMA)
Thu 11:02:44 AM 33.3142 -96.5058 244° Southwest 284 327 10,600 -1,050 Descending FAA TRACON SMA TRACON (SMA)
Thu 11:03:24 AM 33.2944 -96.5550 251° West 269 310 9,600 -1,650 Descending FAA TRACON SMA TRACON (SMA)
Thu 11:04:04 AM 33.2783 -96.6119 261° West 261 300 8,400 -1,875 Descending FAA TRACON SMA TRACON (SMA)
Thu 11:04:44 AM 33.2708 -96.6708 262° West 260 299 7,100 -1,725 Descending FAA TRACON SMA TRACON (SMA)
Thu 11:05:24 AM 33.2644 -96.7219 265° West 251 289 6,100 -825 Descending FAA TRACON SMA TRACON (SMA)
Thu 11:06:04 AM 33.2603 -96.7744 264° West 235 270 6,000 -75 Descending FAA TRACON SMA TRACON (SMA)
Thu 11:06:44 AM 33.2553 -96.8283 265° West 237 273 6,000 -150 Level FAA TRACON SMA TRACON (SMA)
Thu 11:07:24 AM 33.2514 -96.8772 264° West 240 276 5,800 -675 Descending FAA TRACON SMA TRACON (SMA)
Thu 11:08:04 AM 33.2467 -96.9331 242° Southwest 239 275 5,100 -600 Descending FAA TRACON SMA TRACON (SMA)
Thu 11:08:44 AM 33.2264 -96.9786 223° Southwest 236 272 5,000 -75 Descending FAA TRACON SMA TRACON (SMA)
Thu 11:09:24 AM 33.2003 -97.0075 194° South 206 237 5,000  Level FAA TRACON SMA TRACON (SMA)
Thu 11:10:04 AM 33.1706 -97.0164 193° South 173 199 5,000  Level FAA TRACON SMA TRACON (SMA)
Thu 11:10:44 AM 33.1406 -97.0247 176° South 166 191 5,000 -300 Level FAA TRACON SMA TRACON (SMA)
Thu 11:11:24 AM 33.1044 -97.0217 188° South 181 208 4,600 -900 Descending FAA TRACON SMA TRACON (SMA)
Thu 11:12:04 AM 33.0742 -97.0267 180° South 164 189 3,800 -1,350 Descending FAA TRACON SMA TRACON (SMA)
Thu 11:12:44 AM 33.0464 -97.0267 178° South 153 176 2,800 -900 Descending FAA TRACON SMA TRACON (SMA)
Thu 11:13:24 AM 33.0172 -97.0253 184° South 150 173 2,600 -600 Descending FAA TRACON SMA TRACON (SMA)
Thu 11:14:04 AM 32.9922 -97.0272 177° South 134 154 2,000 -741 Descending FAA TRACON SMA TRACON (SMA)
Thu 11:14:45 AM 32.9700 -97.0258 179° South 120 138 1,600 -593 Descending FAA TRACON SMA TRACON (SMA)
Thu 11:15:25 AM 32.9464 -97.0256 180° South 120 138 1,200 -600 Descending FAA TRACON SMA TRACON (SMA)
Thu 11:16:05 AM 32.9247 -97.0256 201° Southwest 126 145 800 -600 Descending FAA TRACON SMA TRACON (SMA)
Thu 11:23:32 AM 32.4542 -97.2343 201° Southwest  Level Estimated

Login

Don't have an account? Register now (free) for customized features, flight alerts, and more!